ADDS TAF Data INFO
IDs: Format: Raw Decoded Include METARs

Data at: 1942 UTC 17 Feb 2018

KPGD 171720Z 1718/1818 16007KT P6SM FEW020
  FM172000 26008KT P6SM FEW030
  FM180200 VRB03KT P6SM FEW020
  FM180700 VRB03KT 1SM BR SCT006
  FM181500 12006KT P6SM FEW015